createdAt,value
2023-03-29T00:01:00.388Z,3.18
2023-03-29T00:06:06.043Z,3.11
2023-03-29T00:11:09.948Z,3.07
2023-03-29T00:16:14.171Z,3.01
2023-03-29T00:21:19.059Z,2.98
2023-03-29T00:26:22.520Z,3.05
2023-03-29T00:31:26.274Z,3.01
2023-03-29T00:36:31.751Z,3.01
2023-03-29T00:41:35.346Z,3.08
2023-03-29T00:46:38.840Z,2.87
2023-03-29T00:51:44.648Z,2.74
2023-03-29T00:56:52.523Z,2.83
2023-03-29T01:02:02.323Z,2.87
2023-03-29T01:07:13.605Z,2.75
2023-03-29T01:12:21.373Z,2.75
2023-03-29T01:17:25.618Z,2.70
2023-03-29T01:22:41.767Z,2.65
2023-03-29T01:27:54.954Z,2.58
2023-03-29T01:33:03.626Z,2.62
2023-03-29T01:38:13.453Z,2.42
2023-03-29T01:43:25.571Z,2.56
2023-03-29T01:48:33.798Z,2.46
2023-03-29T01:53:41.782Z,2.41
2023-03-29T01:58:52.696Z,2.37
2023-03-29T02:04:00.716Z,2.32
2023-03-29T02:09:04.961Z,2.13
2023-03-29T02:14:10.063Z,2.18
2023-03-29T02:19:15.472Z,2.22
2023-03-29T02:24:21.220Z,2.09
2023-03-29T02:29:26.606Z,2.18
2023-03-29T02:34:33.869Z,2.06
2023-03-29T02:39:39.682Z,1.97
2023-03-29T02:44:47.328Z,1.93
2023-03-29T02:49:51.877Z,1.81
2023-03-29T02:54:57.221Z,1.84
2023-03-29T03:00:13.428Z,1.79
2023-03-29T03:05:17.632Z,1.59
2023-03-29T03:10:21.078Z,1.67
2023-03-29T03:15:26.469Z,1.43
2023-03-29T03:20:31.221Z,1.48
2023-03-29T03:25:36.253Z,1.34
2023-03-29T03:30:41.175Z,1.21
2023-03-29T03:35:57.229Z,1.06
2023-03-29T03:41:01.498Z,1.06
2023-03-29T03:46:10.613Z,1.13
2023-03-29T03:51:14.475Z,1.03
2023-03-29T03:56:18.569Z,0.97
2023-03-29T04:01:43.599Z,1.01
2023-03-29T04:06:55.280Z,1.05
2023-03-29T04:12:12.901Z,1.00
2023-03-29T04:17:19.679Z,0.95
2023-03-29T04:22:31.669Z,1.11
2023-03-29T04:27:35.415Z,1.10
2023-03-29T04:32:44.739Z,1.11
2023-03-29T04:37:48.472Z,1.04
2023-03-29T04:42:54.516Z,1.21
2023-03-29T04:48:01.155Z,1.22
2023-03-29T04:53:04.996Z,1.31
2023-03-29T04:58:09.105Z,1.41
2023-03-29T05:03:17.066Z,1.40
2023-03-29T05:08:30.139Z,1.44
2023-03-29T05:13:44.925Z,1.48
2023-03-29T05:18:50.055Z,1.47
2023-03-29T05:23:54.706Z,1.56
2023-03-29T05:28:58.359Z,1.74
2023-03-29T05:34:04.495Z,1.82
2023-03-29T05:39:11.024Z,1.93
2023-03-29T05:44:14.789Z,2.18
2023-03-29T05:49:22.518Z,2.18
2023-03-29T05:54:35.485Z,2.47
2023-03-29T05:59:39.971Z,2.68
2023-03-29T06:04:45.470Z,2.79
2023-03-29T06:10:00.783Z,2.97
2023-03-29T06:15:05.145Z,3.34
2023-03-29T06:20:19.201Z,3.22
2023-03-29T06:25:28.418Z,3.30
2023-03-29T06:30:32.500Z,3.47
2023-03-29T06:35:39.123Z,3.84
2023-03-29T06:40:46.458Z,4.18
2023-03-29T06:45:50.120Z,4.01
2023-03-29T06:51:23.207Z,4.09
2023-03-29T06:56:27.442Z,4.56
2023-03-29T07:01:38.344Z,4.75
2023-03-29T07:07:02.645Z,4.71
2023-03-29T07:12:10.445Z,5.36
2023-03-29T07:17:14.147Z,4.57
2023-03-29T07:22:20.516Z,4.45
2023-03-29T07:27:28.845Z,3.99
2023-03-29T07:32:32.965Z,3.89
2023-03-29T07:37:56.509Z,3.36
2023-03-29T07:43:03.064Z,3.32
2023-03-29T07:48:08.825Z,3.24
2023-03-29T07:53:37.248Z,3.51
2023-03-29T07:58:47.784Z,3.34
2023-03-29T08:03:52.736Z,3.42
2023-03-29T08:09:01.799Z,3.77
2023-03-29T08:14:05.660Z,3.90
2023-03-29T08:19:30.734Z,3.62
2023-03-29T08:24:46.474Z,2.74
2023-03-29T08:29:50.681Z,2.56
2023-03-29T08:34:54.448Z,2.30
2023-03-29T08:40:04.218Z,2.27
2023-03-29T08:45:37.070Z,2.34
2023-03-29T08:50:48.075Z,2.52
2023-03-29T08:55:57.067Z,2.82
2023-03-29T09:01:18.783Z,2.74
2023-03-29T09:06:28.987Z,2.23
2023-03-29T09:12:07.466Z,1.77
2023-03-29T09:17:27.397Z,1.53
2023-03-29T09:22:41.598Z,1.35
2023-03-29T09:27:50.716Z,1.60
2023-03-29T09:33:05.608Z,1.79
2023-03-29T09:38:23.781Z,1.95
2023-03-29T09:43:33.291Z,1.93
2023-03-29T09:48:42.393Z,2.62
2023-03-29T09:53:47.197Z,2.76
2023-03-29T09:59:07.351Z,3.04
2023-03-29T10:04:12.467Z,3.14
2023-03-29T10:09:22.102Z,3.36
2023-03-29T10:14:35.185Z,3.18
2023-03-29T10:19:38.864Z,2.87
2023-03-29T10:24:48.385Z,3.66
2023-03-29T10:29:54.400Z,3.26
2023-03-29T10:35:06.002Z,3.00
2023-03-29T10:40:22.034Z,2.32
2023-03-29T10:45:29.891Z,2.26
2023-03-29T10:50:38.221Z,2.19
2023-03-29T10:55:54.615Z,2.06
2023-03-29T11:01:00.292Z,2.37
2023-03-29T11:06:11.257Z,2.59
2023-03-29T11:11:41.296Z,2.85
2023-03-29T11:16:55.932Z,3.30
2023-03-29T11:22:06.841Z,3.60
2023-03-29T11:27:20.902Z,3.58
2023-03-29T11:32:34.693Z,2.55
2023-03-29T11:37:46.740Z,2.06
2023-03-29T11:42:55.047Z,1.92
2023-03-29T11:48:03.188Z,1.97
2023-03-29T11:53:09.991Z,2.60
2023-03-29T11:58:19.872Z,3.88
2023-03-29T12:03:37.220Z,5.32
2023-03-29T12:08:46.886Z,5.79
2023-03-29T12:13:55.209Z,6.72
2023-03-29T12:19:06.060Z,7.34
2023-03-29T12:24:13.275Z,6.70
2023-03-29T12:29:33.923Z,6.46
2023-03-29T12:34:56.089Z,6.80
2023-03-29T12:40:27.592Z,7.10
2023-03-29T12:46:09.849Z,7.02
2023-03-29T12:51:17.605Z,6.83
2023-03-29T12:56:23.776Z,6.44
2023-03-29T13:01:30.126Z,6.14
2023-03-29T13:06:53.725Z,4.67
2023-03-29T13:12:00.816Z,3.59
2023-03-29T13:17:17.719Z,3.21
2023-03-29T13:22:35.749Z,3.70
2023-03-29T13:27:47.907Z,3.05
2023-03-29T13:33:05.612Z,2.85
2023-03-29T13:38:19.661Z,3.66
2023-03-29T13:43:32.734Z,4.01
2023-03-29T13:49:01.303Z,4.72
2023-03-29T13:54:15.002Z,5.36
2023-03-29T13:59:22.222Z,5.31
2023-03-29T14:04:28.824Z,5.00
2023-03-29T14:09:37.384Z,5.34
2023-03-29T14:14:59.510Z,5.50
2023-03-29T14:20:08.981Z,4.58
2023-03-29T14:25:18.534Z,4.71
2023-03-29T14:30:27.536Z,5.20
2023-03-29T14:35:33.974Z,5.32
2023-03-29T14:40:38.952Z,5.24
2023-03-29T14:45:42.683Z,5.35
2023-03-29T14:50:48.060Z,5.13
2023-03-29T14:55:55.647Z,4.88
2023-03-29T15:01:00.522Z,4.53
2023-03-29T15:06:05.938Z,4.27
2023-03-29T15:11:16.955Z,4.09
2023-03-29T15:16:22.949Z,4.07
2023-03-29T15:21:32.005Z,3.95
2023-03-29T15:26:40.870Z,3.75
2023-03-29T15:31:55.273Z,3.76
2023-03-29T15:36:59.462Z,3.52
2023-03-29T15:42:04.347Z,3.32
2023-03-29T15:47:12.146Z,3.30
2023-03-29T15:52:16.268Z,3.28
2023-03-29T15:57:21.975Z,3.34
2023-03-29T16:02:26.635Z,3.45
2023-03-29T16:07:30.318Z,3.37
2023-03-29T16:12:37.914Z,3.38
2023-03-29T16:17:41.775Z,3.34
2023-03-29T16:22:45.199Z,3.16
2023-03-29T16:27:52.871Z,3.23
2023-03-29T16:32:56.935Z,3.11
2023-03-29T16:38:00.541Z,2.96
2023-03-29T16:43:05.684Z,3.09
2023-03-29T16:48:13.316Z,3.07
2023-03-29T16:53:16.753Z,3.07
2023-03-29T16:58:23.265Z,3.01
2023-03-29T17:03:27.824Z,2.77
2023-03-29T17:08:31.561Z,2.61
2023-03-29T17:13:37.660Z,2.58
2023-03-29T17:18:41.410Z,2.26
2023-03-29T17:23:44.882Z,2.36
2023-03-29T17:28:49.727Z,2.46
2023-03-29T17:33:53.756Z,2.49
2023-03-29T17:38:57.710Z,2.33
2023-03-29T17:44:02.560Z,1.98
2023-03-29T17:49:06.828Z,2.02
2023-03-29T17:54:10.392Z,2.09
2023-03-29T17:59:15.326Z,2.05
2023-03-29T18:04:18.757Z,2.03
2023-03-29T18:09:22.213Z,1.92
2023-03-29T18:14:27.355Z,1.73
2023-03-29T18:19:31.763Z,1.75
2023-03-29T18:24:35.342Z,1.75
2023-03-29T18:29:40.824Z,1.62
2023-03-29T18:34:44.323Z,1.70
2023-03-29T18:39:48.132Z,1.64
2023-03-29T18:44:53.319Z,1.54
2023-03-29T18:49:57.838Z,1.39
2023-03-29T18:55:01.289Z,1.46
2023-03-29T19:00:12.636Z,1.32
2023-03-29T19:05:16.097Z,1.35
2023-03-29T19:10:20.260Z,1.31
2023-03-29T19:15:25.502Z,1.29
2023-03-29T19:20:30.036Z,1.31
2023-03-29T19:25:33.629Z,1.29
2023-03-29T19:30:38.769Z,1.09
2023-03-29T19:35:42.296Z,1.07
2023-03-29T19:40:46.710Z,1.07
2023-03-29T19:45:52.130Z,1.33
2023-03-29T19:50:55.579Z,1.25
2023-03-29T19:55:59.925Z,1.28
2023-03-29T20:01:05.249Z,1.42
2023-03-29T20:06:10.445Z,1.29
2023-03-29T20:11:15.981Z,1.17
2023-03-29T20:16:26.170Z,1.13
2023-03-29T20:21:30.076Z,1.11
2023-03-29T20:26:33.737Z,0.89
2023-03-29T20:31:38.680Z,0.90
2023-03-29T20:36:42.662Z,0.94
2023-03-29T20:41:47.928Z,0.98
2023-03-29T20:47:02.413Z,1.01
2023-03-29T20:52:08.470Z,0.94
2023-03-29T20:57:14.669Z,0.75
2023-03-29T21:02:21.929Z,0.85
2023-03-29T21:07:25.567Z,0.81
2023-03-29T21:12:29.014Z,0.87
2023-03-29T21:17:33.932Z,0.83
2023-03-29T21:22:37.689Z,0.77
2023-03-29T21:27:41.736Z,0.78
2023-03-29T21:32:46.634Z,0.72
2023-03-29T21:37:50.085Z,0.62
2023-03-29T21:42:53.445Z,0.60
2023-03-29T21:47:58.279Z,0.58
2023-03-29T21:53:02.130Z,0.51
2023-03-29T21:58:06.161Z,0.50
2023-03-29T22:03:11.338Z,0.34
2023-03-29T22:08:14.737Z,0.38
2023-03-29T22:13:18.540Z,0.42
2023-03-29T22:18:23.705Z,0.44
2023-03-29T22:23:27.824Z,0.14
2023-03-29T22:28:31.839Z,0.09
2023-03-29T22:33:37.558Z,0.02
2023-03-29T22:38:41.209Z,-0.03
2023-03-29T22:43:44.924Z,-0.17
2023-03-29T22:48:49.926Z,-0.06
2023-03-29T22:53:53.473Z,-0.04
2023-03-29T22:58:56.879Z,0.06
2023-03-29T23:04:02.018Z,0.03
2023-03-29T23:09:05.616Z,-0.02
2023-03-29T23:14:09.614Z,-0.03
2023-03-29T23:19:14.847Z,-0.16
2023-03-29T23:24:19.177Z,-0.19
2023-03-29T23:29:22.823Z,-0.28
2023-03-29T23:34:27.705Z,-0.40
2023-03-29T23:39:31.656Z,-0.36
2023-03-29T23:44:35.008Z,-0.44
2023-03-29T23:49:40.214Z,-0.40
2023-03-29T23:54:43.707Z,-0.41
2023-03-29T23:59:47.464Z,-0.30
